Time;durP1;ratioP1;P1;durP2;ratioP2;P2;SDS_P1;SDS_P2;PMS_P1;PMS_P2;Temp;Humidity;BMP_temperature;BMP_pressure;BME280_temperature;BME280_humidity;BME280_pressure;Samples;Min_cycle;Max_cycle;Signal;HPM_P1;HPM_P2
2023/09/08 00:00:47;;;;;;;32.42;17.95;;;;;;;;;;4996321;28;20094;-80
2023/09/08 00:03:14;;;;;;;29.60;16.80;;;;;;;;;;4995438;28;20051;-79
2023/09/08 00:05:40;;;;;;;36.95;17.65;;;;;;;;;;4995993;28;20207;-80
2023/09/08 00:08:06;;;;;;;32.55;17.63;;;;;;;;;;4994660;28;20066;-79
2023/09/08 00:10:32;;;;;;;31.23;17.33;;;;;;;;;;4994699;28;20081;-79
2023/09/08 00:12:58;;;;;;;36.33;18.37;;;;;;;;;;4994379;28;20113;-80
2023/09/08 00:15:24;;;;;;;32.17;16.88;;;;;;;;;;4995808;28;20297;-79
2023/09/08 00:17:50;;;;;;;37.65;16.92;;;;;;;;;;4995151;28;20057;-80
2023/09/08 00:20:16;;;;;;;33.10;16.58;;;;;;;;;;4993705;28;20082;-81
2023/09/08 00:22:42;;;;;;;27.98;15.88;;;;;;;;;;4993594;28;20482;-79
2023/09/08 00:25:09;;;;;;;30.35;16.02;;;;;;;;;;4994387;28;20045;-80
2023/09/08 00:27:35;;;;;;;34.10;15.55;;;;;;;;;;4995157;28;20053;-80
2023/09/08 00:30:01;;;;;;;29.05;15.98;;;;;;;;;;4995000;28;20100;-77
2023/09/08 00:32:28;;;;;;;32.25;16.35;;;;;;;;;;4995556;28;20058;-79
2023/09/08 00:34:54;;;;;;;30.58;16.42;;;;;;;;;;4993772;28;20410;-79
2023/09/08 00:37:20;;;;;;;28.30;15.07;;;;;;;;;;4993788;28;20498;-79
2023/09/08 00:39:46;;;;;;;28.07;15.43;;;;;;;;;;4994261;28;20677;-80
2023/09/08 00:42:12;;;;;;;28.60;15.73;;;;;;;;;;4995262;28;20097;-79
2023/09/08 00:44:38;;;;;;;25.83;14.77;;;;;;;;;;4993509;28;20050;-80
2023/09/08 00:47:04;;;;;;;28.80;15.60;;;;;;;;;;4994628;28;20050;-78
2023/09/08 00:49:30;;;;;;;30.23;15.38;;;;;;;;;;4993624;28;20085;-79
2023/09/08 00:51:56;;;;;;;25.45;14.82;;;;;;;;;;4994100;28;20081;-80
2023/09/08 00:54:22;;;;;;;29.00;15.20;;;;;;;;;;4977218;28;20089;-80
2023/09/08 00:56:49;;;;;;;28.63;14.77;;;;;;;;;;4993294;28;20125;-80
2023/09/08 00:59:16;;;;;;;29.30;15.07;;;;;;;;;;4993132;28;20054;-79
2023/09/08 01:01:42;;;;;;;27.98;14.88;;;;;;;;;;4994180;28;20053;-80
2023/09/08 01:04:08;;;;;;;27.58;15.98;;;;;;;;;;4994567;28;20046;-79
2023/09/08 01:06:34;;;;;;;25.95;15.70;;;;;;;;;;4995139;28;20046;-80
2023/09/08 01:09:00;;;;;;;25.25;14.75;;;;;;;;;;4994414;28;20050;-80
2023/09/08 01:11:26;;;;;;;28.95;15.85;;;;;;;;;;4994087;28;20129;-79
2023/09/08 01:13:53;;;;;;;27.92;15.65;;;;;;;;;;4994269;28;20054;-81
2023/09/08 01:16:19;;;;;;;30.75;15.85;;;;;;;;;;4994160;28;20042;-80
2023/09/08 01:18:48;;;;;;;24.57;15.57;;;;;;;;;;4994271;28;20054;-80
2023/09/08 01:21:53;;;;;;;25.42;15.10;;;;;;;;;;4994750;28;20321;-79
2023/09/08 01:24:19;;;;;;;26.70;14.53;;;;;;;;;;4975627;28;20515;-80
2023/09/08 01:26:45;;;;;;;26.70;14.73;;;;;;;;;;4991868;28;20050;-80
2023/09/08 01:29:11;;;;;;;25.02;14.98;;;;;;;;;;4982702;28;20069;-80
2023/09/08 01:31:38;;;;;;;29.25;15.25;;;;;;;;;;4994247;28;20051;-80
2023/09/08 01:34:06;;;;;;;31.23;15.25;;;;;;;;;;4994461;28;20133;-80
2023/09/08 01:36:33;;;;;;;24.77;15.48;;;;;;;;;;4992943;28;20405;-79
2023/09/08 01:38:59;;;;;;;25.13;15.18;;;;;;;;;;4994145;28;20093;-79
2023/09/08 01:41:25;;;;;;;29.47;15.97;;;;;;;;;;4994008;28;20394;-80
2023/09/08 01:43:51;;;;;;;27.97;15.50;;;;;;;;;;4994104;28;20285;-79
2023/09/08 01:46:17;;;;;;;31.63;15.53;;;;;;;;;;4994165;28;20288;-80
2023/09/08 01:48:43;;;;;;;28.37;15.50;;;;;;;;;;4993039;28;20133;-79
2023/09/08 01:51:10;;;;;;;28.48;15.38;;;;;;;;;;4993000;28;20294;-80
2023/09/08 01:53:36;;;;;;;25.93;15.33;;;;;;;;;;4992784;28;20042;-79
2023/09/08 01:56:02;;;;;;;27.10;14.43;;;;;;;;;;4993852;28;20064;-80
2023/09/08 01:58:29;;;;;;;28.17;15.33;;;;;;;;;;4993981;28;20277;-79
2023/09/08 02:01:00;;;;;;;27.15;15.43;;;;;;;;;;4993912;28;20057;-80
2023/09/08 02:03:26;;;;;;;29.38;16.08;;;;;;;;;;4994441;28;20108;-80
2023/09/08 02:05:53;;;;;;;25.47;15.73;;;;;;;;;;4994312;28;20129;-79
2023/09/08 02:08:19;;;;;;;29.30;15.85;;;;;;;;;;4996270;28;20042;-78
2023/09/08 02:10:45;;;;;;;26.97;15.93;;;;;;;;;;4999187;28;20054;-80
2023/09/08 02:13:11;;;;;;;31.20;16.07;;;;;;;;;;5000113;28;20073;-79
2023/09/08 02:15:37;;;;;;;29.90;15.63;;;;;;;;;;4997473;28;20297;-78
2023/09/08 02:18:03;;;;;;;27.20;15.27;;;;;;;;;;4997014;28;20250;-79
2023/09/08 02:20:29;;;;;;;25.95;15.40;;;;;;;;;;4996655;28;20654;-79
2023/09/08 02:22:56;;;;;;;26.33;14.50;;;;;;;;;;4996151;28;20427;-79
2023/09/08 02:25:24;;;;;;;25.07;14.63;;;;;;;;;;4994550;28;20641;-80
2023/09/08 02:27:50;;;;;;;28.05;15.50;;;;;;;;;;4993832;28;20385;-78
2023/09/08 02:30:16;;;;;;;24.83;16.13;;;;;;;;;;4993358;28;20083;-79
2023/09/08 02:32:43;;;;;;;28.45;15.85;;;;;;;;;;4993866;28;20386;-78
2023/09/08 02:35:09;;;;;;;27.15;15.68;;;;;;;;;;4992652;28;20050;-79
2023/09/08 02:37:35;;;;;;;27.92;15.55;;;;;;;;;;4980040;28;20129;-79
2023/09/08 02:40:03;;;;;;;26.20;15.17;;;;;;;;;;4996861;28;20474;-80
2023/09/08 02:42:29;;;;;;;26.13;15.07;;;;;;;;;;4997103;28;20129;-78
2023/09/08 02:44:55;;;;;;;27.20;16.40;;;;;;;;;;4997483;28;20108;-79
2023/09/08 02:47:21;;;;;;;26.20;15.63;;;;;;;;;;4996595;28;20835;-78
2023/09/08 02:49:48;;;;;;;25.52;15.32;;;;;;;;;;4997360;28;20046;-78
2023/09/08 02:52:14;;;;;;;25.00;15.27;;;;;;;;;;4996905;28;20054;-78
2023/09/08 02:54:40;;;;;;;26.63;15.83;;;;;;;;;;4997544;28;20046;-79
2023/09/08 02:57:06;;;;;;;30.40;15.53;;;;;;;;;;4997263;28;20302;-79
2023/09/08 02:59:32;;;;;;;27.13;15.98;;;;;;;;;;4997300;28;20051;-79
2023/09/08 03:02:00;;;;;;;32.22;15.88;;;;;;;;;;4996743;28;20050;-79
2023/09/08 03:04:26;;;;;;;28.42;16.38;;;;;;;;;;4997195;28;20046;-79
2023/09/08 03:06:52;;;;;;;26.20;16.00;;;;;;;;;;4979683;28;20054;-80
2023/09/08 03:09:18;;;;;;;26.93;16.40;;;;;;;;;;4998823;28;20050;-78
2023/09/08 03:11:44;;;;;;;29.92;15.88;;;;;;;;;;5004938;28;20050;-78
2023/09/08 03:14:11;;;;;;;24.00;15.45;;;;;;;;;;5005336;28;20046;-79
2023/09/08 03:16:37;;;;;;;28.15;16.17;;;;;;;;;;5002550;28;20056;-79
2023/09/08 03:19:03;;;;;;;28.10;16.27;;;;;;;;;;5003600;28;20464;-78
2023/09/08 03:21:30;;;;;;;30.05;16.90;;;;;;;;;;5003353;28;20053;-80
2023/09/08 03:23:56;;;;;;;30.05;16.50;;;;;;;;;;5002353;28;20390;-80
2023/09/08 03:26:22;;;;;;;26.67;16.53;;;;;;;;;;5002638;28;20101;-79
2023/09/08 03:28:48;;;;;;;30.43;17.13;;;;;;;;;;5001232;28;20133;-80
2023/09/08 03:31:14;;;;;;;29.93;17.03;;;;;;;;;;5000300;28;20361;-79
2023/09/08 03:33:40;;;;;;;29.17;17.57;;;;;;;;;;4999421;28;20054;-78
2023/09/08 03:36:06;;;;;;;31.15;17.00;;;;;;;;;;4999320;28;20052;-79
2023/09/08 03:38:32;;;;;;;28.97;17.37;;;;;;;;;;4997467;28;20050;-79
2023/09/08 03:40:58;;;;;;;29.37;16.70;;;;;;;;;;4996131;28;20050;-80
2023/09/08 03:43:24;;;;;;;30.70;17.67;;;;;;;;;;4996650;28;20285;-79
2023/09/08 03:45:50;;;;;;;32.10;17.80;;;;;;;;;;4995996;28;20050;-80
2023/09/08 03:48:16;;;;;;;28.83;18.10;;;;;;;;;;4995462;28;20050;-77
2023/09/08 03:50:45;;;;;;;25.67;15.97;;;;;;;;;;4978648;28;20082;-77
2023/09/08 03:53:11;;;;;;;29.95;17.63;;;;;;;;;;4994830;28;20054;-80
2023/09/08 03:55:37;;;;;;;29.40;17.42;;;;;;;;;;4995328;28;20042;-80
2023/09/08 03:58:03;;;;;;;29.73;17.90;;;;;;;;;;4994275;28;20475;-79
2023/09/08 04:00:29;;;;;;;31.03;18.30;;;;;;;;;;4996112;28;20046;-79
2023/09/08 04:02:56;;;;;;;32.95;18.63;;;;;;;;;;4994992;28;20273;-78
2023/09/08 04:05:23;;;;;;;31.17;17.77;;;;;;;;;;4994386;28;20047;-79
2023/09/08 04:07:49;;;;;;;28.40;17.92;;;;;;;;;;4995682;28;20467;-79
2023/09/08 04:10:15;;;;;;;31.30;18.27;;;;;;;;;;4995957;28;20388;-79
2023/09/08 04:12:41;;;;;;;27.77;17.90;;;;;;;;;;4995497;28;20065;-79
2023/09/08 04:15:07;;;;;;;27.55;16.95;;;;;;;;;;4994318;28;20042;-80
2023/09/08 04:17:35;;;;;;;30.23;18.30;;;;;;;;;;4978340;28;20061;-80
2023/09/08 04:20:03;;;;;;;30.25;18.23;;;;;;;;;;4995713;28;20108;-80
2023/09/08 04:22:30;;;;;;;31.15;18.13;;;;;;;;;;4993995;28;20111;-79
2023/09/08 04:24:57;;;;;;;36.70;18.33;;;;;;;;;;4995143;28;20486;-79
2023/09/08 04:27:23;;;;;;;;;;;;;;;;;;4994530;28;20058;-78
2023/09/08 04:29:49;;;;;;;32.38;18.15;;;;;;;;;;4995039;28;19928;-79
2023/09/08 04:32:15;;;;;;;32.43;18.13;;;;;;;;;;4994991;28;20050;-80
2023/09/08 04:34:41;;;;;;;29.50;17.92;;;;;;;;;;4994532;28;20050;-81
2023/09/08 04:37:08;;;;;;;31.27;18.25;;;;;;;;;;4995237;28;20046;-80
2023/09/08 04:39:34;;;;;;;30.10;17.95;;;;;;;;;;4993836;28;20054;-79
2023/09/08 04:42:00;;;;;;;33.58;19.15;;;;;;;;;;4994403;28;20560;-78
2023/09/08 04:44:26;;;;;;;29.83;17.57;;;;;;;;;;4994873;28;20487;-79
2023/09/08 04:46:52;;;;;;;33.37;18.67;;;;;;;;;;4995205;28;20328;-80
2023/09/08 04:49:19;;;;;;;30.60;18.58;;;;;;;;;;4994593;28;20134;-80
2023/09/08 04:51:45;;;;;;;35.67;18.35;;;;;;;;;;4994637;28;20042;-80
2023/09/08 04:54:11;;;;;;;29.38;19.13;;;;;;;;;;4994524;28;20097;-79
2023/09/08 04:56:38;;;;;;;30.87;18.23;;;;;;;;;;4995335;28;20043;-78
2023/09/08 04:59:04;;;;;;;29.40;18.13;;;;;;;;;;4994414;28;20399;-79
2023/09/08 05:01:32;;;;;;;29.33;18.57;;;;;;;;;;4994739;28;20046;-79
2023/09/08 05:03:59;;;;;;;31.70;18.52;;;;;;;;;;4993547;28;20121;-78
2023/09/08 05:06:25;;;;;;;29.80;17.58;;;;;;;;;;4994235;28;20046;-78
2023/09/08 05:08:51;;;;;;;33.35;18.67;;;;;;;;;;4994433;28;20057;-79
2023/09/08 05:11:19;;;;;;;31.30;18.95;;;;;;;;;;4994775;28;20054;-79
2023/09/08 05:13:45;;;;;;;34.38;18.75;;;;;;;;;;4994778;28;20058;-78
2023/09/08 05:16:11;;;;;;;30.98;18.50;;;;;;;;;;4993120;28;20046;-78
2023/09/08 05:18:38;;;;;;;32.53;17.90;;;;;;;;;;4993205;28;20394;-79
2023/09/08 05:21:04;;;;;;;;;;;;;;;;;;4994558;28;20050;-78
2023/09/08 05:23:30;;;;;;;30.10;17.73;;;;;;;;;;4992902;28;19926;-78
2023/09/08 05:25:56;;;;;;;33.17;18.73;;;;;;;;;;4994226;28;20078;-80
2023/09/08 05:28:22;;;;;;;31.90;18.70;;;;;;;;;;4994544;28;20046;-78
2023/09/08 05:30:51;;;;;;;32.37;17.33;;;;;;;;;;4993902;28;20125;-78
2023/09/08 05:33:17;;;;;;;37.15;18.58;;;;;;;;;;4994294;28;20146;-79
2023/09/08 05:35:44;;;;;;;33.83;18.07;;;;;;;;;;4993873;28;20390;-77
2023/09/08 05:38:10;;;;;;;35.45;17.90;;;;;;;;;;4994100;28;20293;-78
2023/09/08 05:40:36;;;;;;;33.13;18.63;;;;;;;;;;4994025;28;20050;-76
2023/09/08 05:43:02;;;;;;;33.07;18.27;;;;;;;;;;4992659;28;20066;-79
2023/09/08 05:45:30;;;;;;;31.50;17.80;;;;;;;;;;4992940;28;20437;-78
2023/09/08 05:47:56;;;;;;;31.20;18.08;;;;;;;;;;4993679;28;20125;-79
2023/09/08 05:50:22;;;;;;;32.50;17.93;;;;;;;;;;4976338;28;20042;-79
2023/09/08 05:52:48;;;;;;;32.77;17.10;;;;;;;;;;4993143;28;20050;-81
2023/09/08 05:55:14;;;;;;;34.35;18.85;;;;;;;;;;4993677;28;20050;-81
2023/09/08 05:57:40;;;;;;;31.50;19.10;;;;;;;;;;4993670;28;20046;-80
2023/09/08 06:00:07;;;;;;;30.60;18.30;;;;;;;;;;4993694;28;20087;-80
2023/09/08 06:02:33;;;;;;;35.97;18.38;;;;;;;;;;4994208;28;20672;-78
2023/09/08 06:04:59;;;;;;;33.03;19.03;;;;;;;;;;4992628;28;20050;-79
2023/09/08 06:07:25;;;;;;;34.60;17.50;;;;;;;;;;4993766;28;20050;-80
2023/09/08 06:09:51;;;;;;;31.70;18.23;;;;;;;;;;4992865;28;20604;-80
2023/09/08 06:12:17;;;;;;;34.03;18.43;;;;;;;;;;4996936;28;20062;-80
2023/09/08 06:14:44;;;;;;;35.37;19.10;;;;;;;;;;4997155;28;20503;-79
2023/09/08 06:17:10;;;;;;;31.53;17.70;;;;;;;;;;4996149;28;20336;-80
2023/09/08 06:19:36;;;;;;;33.78;18.50;;;;;;;;;;4997240;28;20042;-79
2023/09/08 06:22:02;;;;;;;30.90;17.63;;;;;;;;;;4997149;28;20125;-80
2023/09/08 06:24:28;;;;;;;37.50;18.67;;;;;;;;;;4997664;28;20054;-77
2023/09/08 06:26:55;;;;;;;32.53;17.70;;;;;;;;;;4997171;28;20042;-79
2023/09/08 06:29:21;;;;;;;30.55;17.70;;;;;;;;;;4995905;28;20046;-81
2023/09/08 06:31:47;;;;;;;35.20;17.98;;;;;;;;;;4996846;28;20498;-79
2023/09/08 06:34:13;;;;;;;29.73;16.90;;;;;;;;;;4997014;28;20103;-78
2023/09/08 06:36:39;;;;;;;36.50;18.93;;;;;;;;;;4997373;28;20298;-79
2023/09/08 06:39:05;;;;;;;34.37;18.37;;;;;;;;;;4996913;28;20178;-80
2023/09/08 06:41:31;;;;;;;32.50;18.40;;;;;;;;;;4995796;28;20738;-80
2023/09/08 06:43:57;;;;;;;38.57;18.57;;;;;;;;;;4996920;28;20132;-79
2023/09/08 06:46:23;;;;;;;34.53;17.67;;;;;;;;;;4996833;28;20053;-80
2023/09/08 06:48:49;;;;;;;36.23;18.03;;;;;;;;;;4996750;28;20282;-80
2023/09/08 06:51:15;;;;;;;29.47;16.50;;;;;;;;;;4996676;28;20277;-78
2023/09/08 06:53:43;;;;;;;34.77;18.10;;;;;;;;;;4996716;28;20043;-79
2023/09/08 06:56:09;;;;;;;33.30;17.13;;;;;;;;;;4996551;28;20633;-78
2023/09/08 06:58:35;;;;;;;37.67;18.27;;;;;;;;;;4979487;28;20116;-80
2023/09/08 07:01:01;;;;;;;31.67;17.73;;;;;;;;;;4996440;28;20100;-82
2023/09/08 07:03:27;;;;;;;34.97;17.83;;;;;;;;;;4996403;28;20509;-79
2023/09/08 07:05:53;;;;;;;32.37;16.97;;;;;;;;;;4996814;28;20356;-80
2023/09/08 07:08:19;;;;;;;32.33;17.55;;;;;;;;;;4995460;28;20378;-81
2023/09/08 07:10:46;;;;;;;32.03;18.00;;;;;;;;;;4996383;28;20473;-79
2023/09/08 07:13:12;;;;;;;35.05;17.00;;;;;;;;;;4996413;28;20467;-80
2023/09/08 07:15:38;;;;;;;29.80;18.07;;;;;;;;;;4995411;28;20059;-80
2023/09/08 07:18:04;;;;;;;32.97;17.67;;;;;;;;;;4996163;28;20420;-79
2023/09/08 07:20:30;;;;;;;31.02;17.15;;;;;;;;;;4996223;28;20073;-81
2023/09/08 07:22:56;;;;;;;32.40;16.77;;;;;;;;;;4996615;28;20097;-81
2023/09/08 07:25:22;;;;;;;31.00;17.20;;;;;;;;;;4995165;28;20301;-81
2023/09/08 07:27:52;;;;;;;33.30;17.50;;;;;;;;;;4995957;28;20285;-79
2023/09/08 07:30:18;;;;;;;32.85;18.15;;;;;;;;;;4994767;28;20278;-80
2023/09/08 07:32:44;;;;;;;33.38;16.77;;;;;;;;;;4995872;28;20134;-80
2023/09/08 07:35:14;;;;;;;30.30;16.90;;;;;;;;;;4995736;28;20149;-78
2023/09/08 07:37:40;;;;;;;32.72;17.08;;;;;;;;;;4996249;28;20273;-82
2023/09/08 07:40:06;;;;;;;;;;;;;;;;;;4994908;28;20054;-79
2023/09/08 07:42:32;;;;;;;38.28;17.35;;;;;;;;;;4994510;28;19996;-81
2023/09/08 07:44:59;;;;;;;33.15;16.27;;;;;;;;;;4995910;28;20486;-81
2023/09/08 07:47:25;;;;;;;30.35;16.67;;;;;;;;;;4996168;28;20042;-80
2023/09/08 07:49:51;;;;;;;32.83;16.73;;;;;;;;;;4996582;28;20167;-80
2023/09/08 07:52:17;;;;;;;34.90;16.98;;;;;;;;;;4996628;28;20286;-80
2023/09/08 07:54:43;;;;;;;34.22;17.02;;;;;;;;;;4996361;28;20051;-79
2023/09/08 07:57:09;;;;;;;33.13;17.50;;;;;;;;;;4995533;28;20051;-79
2023/09/08 07:59:35;;;;;;;34.58;18.00;;;;;;;;;;4979114;28;20097;-81
2023/09/08 08:02:02;;;;;;;38.85;17.65;;;;;;;;;;4995674;28;20057;-78
2023/09/08 08:04:29;;;;;;;34.83;16.88;;;;;;;;;;4995742;28;20132;-81
2023/09/08 08:06:55;;;;;;;36.75;17.48;;;;;;;;;;4995619;28;20043;-80
2023/09/08 08:09:21;;;;;;;35.58;16.70;;;;;;;;;;4994451;28;20058;-80
2023/09/08 08:11:47;;;;;;;35.42;17.77;;;;;;;;;;4995418;28;20121;-81
2023/09/08 08:14:13;;;;;;;34.75;17.67;;;;;;;;;;4994147;28;20046;-80
2023/09/08 08:16:40;;;;;;;35.47;18.42;;;;;;;;;;4994336;28;20046;-82
2023/09/08 08:19:06;;;;;;;34.08;17.88;;;;;;;;;;4994207;28;20078;-79
2023/09/08 08:21:32;;;;;;;32.50;16.95;;;;;;;;;;4994167;28;20466;-83
2023/09/08 08:23:58;;;;;;;34.55;17.73;;;;;;;;;;4995517;28;20149;-84
2023/09/08 08:26:28;;;;;;;33.65;17.88;;;;;;;;;;4996747;28;20081;-80
2023/09/08 08:28:54;;;;;;;34.85;17.88;;;;;;;;;;4995365;28;20082;-83
2023/09/08 08:31:20;;;;;;;35.45;17.15;;;;;;;;;;4994243;28;20054;-82
2023/09/08 08:33:46;;;;;;;35.40;17.60;;;;;;;;;;4995086;28;20371;-81
2023/09/08 08:36:12;;;;;;;39.15;18.88;;;;;;;;;;4995180;28;20129;-80
2023/09/08 08:38:38;;;;;;;32.50;17.42;;;;;;;;;;4994810;28;20046;-81
2023/09/08 08:41:05;;;;;;;33.88;17.08;;;;;;;;;;4995274;28;20129;-80
2023/09/08 08:43:32;;;;;;;32.85;16.17;;;;;;;;;;4995980;28;20089;-83
2023/09/08 08:45:59;;;;;;;33.22;15.10;;;;;;;;;;4999223;28;20050;-81
2023/09/08 08:48:26;;;;;;;31.70;15.57;;;;;;;;;;5000108;28;20042;-80
2023/09/08 08:50:52;;;;;;;38.17;16.35;;;;;;;;;;5000510;28;20077;-84
2023/09/08 08:53:21;;;;;;;40.55;17.08;;;;;;;;;;4999988;28;20050;-81
2023/09/08 08:55:47;;;;;;;34.85;15.77;;;;;;;;;;4999646;28;20056;-80
2023/09/08 08:58:14;;;;;;;31.70;15.48;;;;;;;;;;4995772;28;20050;-81
2023/09/08 09:00:40;;;;;;;33.92;15.32;;;;;;;;;;4995163;28;20061;-81
2023/09/08 09:03:07;;;;;;;34.15;15.52;;;;;;;;;;4994505;28;20050;-80
2023/09/08 09:05:35;;;;;;;27.85;14.57;;;;;;;;;;4994443;28;20096;-82
2023/09/08 09:08:03;;;;;;;31.40;15.45;;;;;;;;;;4993271;28;20057;-81
2023/09/08 09:10:30;;;;;;;30.00;14.65;;;;;;;;;;4994758;28;20050;-79
2023/09/08 09:12:56;;;;;;;35.28;14.13;;;;;;;;;;4995737;28;20098;-82
2023/09/08 09:15:29;;;;;;;30.55;14.93;;;;;;;;;;4994520;28;20046;-80
2023/09/08 09:18:06;;;;;;;33.40;15.40;;;;;;;;;;4993418;28;20054;-81
2023/09/08 09:20:32;;;;;;;33.70;14.68;;;;;;;;;;4993115;28;20050;-79
2023/09/08 09:22:58;;;;;;;29.25;13.77;;;;;;;;;;4994143;28;20053;-81
2023/09/08 09:25:29;;;;;;;31.17;14.57;;;;;;;;;;4994357;28;20104;-86
2023/09/08 09:27:56;;;;;;;29.17;14.32;;;;;;;;;;4993915;28;20125;-78
2023/09/08 09:30:22;;;;;;;28.98;14.93;;;;;;;;;;4993946;28;20406;-82
2023/09/08 09:32:49;;;;;;;34.20;14.70;;;;;;;;;;4994307;28;20077;-82
2023/09/08 09:35:15;;;;;;;;;;;;;;;;;;4977560;28;20497;-84
2023/09/08 09:37:42;;;;;;;31.85;14.73;;;;;;;;;;4994163;28;19922;-80
2023/09/08 09:40:10;;;;;;;35.92;14.93;;;;;;;;;;4994298;28;20072;-79
2023/09/08 09:42:40;;;;;;;34.67;13.88;;;;;;;;;;4992905;28;20443;-82
2023/09/08 09:45:06;;;;;;;26.77;13.32;;;;;;;;;;4995953;28;20509;-85
2023/09/08 09:47:32;;;;;;;29.23;13.82;;;;;;;;;;4990445;28;20048;-80
2023/09/08 09:49:59;;;;;;;37.45;14.00;;;;;;;;;;5005208;28;20457;-78
2023/09/08 09:52:31;;;;;;;31.95;14.07;;;;;;;;;;4987562;28;20138;-79
2023/09/08 09:54:58;;;;;;;30.80;14.20;;;;;;;;;;5004235;28;20074;-81
2023/09/08 09:57:24;;;;;;;28.88;14.13;;;;;;;;;;5003322;28;20078;-82
2023/09/08 09:59:53;;;;;;;27.35;14.45;;;;;;;;;;4985865;28;20054;-81
2023/09/08 10:02:20;;;;;;;28.88;14.75;;;;;;;;;;5002065;28;20061;-80
2023/09/08 10:04:48;;;;;;;29.58;14.30;;;;;;;;;;5000869;28;20050;-78
2023/09/08 10:07:15;;;;;;;29.27;14.02;;;;;;;;;;4999901;28;20069;-81
2023/09/08 10:09:41;;;;;;;34.13;14.73;;;;;;;;;;4998565;28;20122;-80
2023/09/08 10:12:08;;;;;;;32.22;14.48;;;;;;;;;;4997199;28;20403;-80
2023/09/08 10:14:40;;;;;;;34.60;14.73;;;;;;;;;;4981692;28;20081;-80
2023/09/08 10:17:06;;;;;;;33.42;13.70;;;;;;;;;;4998340;28;20050;-80
2023/09/08 10:19:35;;;;;;;36.85;15.18;;;;;;;;;;4996573;28;20039;-82
2023/09/08 10:22:03;;;;;;;34.25;15.70;;;;;;;;;;4997443;28;20054;-82
2023/09/08 10:24:32;;;;;;;34.50;15.32;;;;;;;;;;5000117;28;20046;-81
2023/09/08 10:27:10;;;;;;;33.03;15.63;;;;;;;;;;4999640;28;20050;-84
2023/09/08 10:29:37;;;;;;;33.83;16.17;;;;;;;;;;4998391;28;20442;-82
2023/09/08 10:32:04;;;;;;;35.85;15.80;;;;;;;;;;5000217;28;20054;-81
2023/09/08 10:34:31;;;;;;;35.50;15.52;;;;;;;;;;4996443;28;20042;-85
2023/09/08 10:36:57;;;;;;;33.78;15.93;;;;;;;;;;4997543;28;20042;-84
2023/09/08 10:39:30;;;;;;;37.88;16.52;;;;;;;;;;4980686;28;20402;-82
2023/09/08 10:42:15;;;;;;;38.80;16.45;;;;;;;;;;4997704;28;20058;-80
2023/09/08 10:44:41;;;;;;;35.75;16.90;;;;;;;;;;4997672;28;20085;-81
2023/09/08 10:47:07;;;;;;;44.10;17.02;;;;;;;;;;4997255;28;20101;-85
2023/09/08 10:49:33;;;;;;;;;;;;;;;;;;4997603;28;20120;-77
2023/09/08 10:52:08;;;;;;;41.72;16.60;;;;;;;;;;4997038;28;20381;-82
2023/09/08 10:54:43;;;;;;;38.60;16.48;;;;;;;;;;4997386;28;20109;-82
2023/09/08 10:57:13;;;;;;;38.33;16.83;;;;;;;;;;4996117;28;20050;-76
2023/09/08 10:59:40;;;;;;;46.67;16.73;;;;;;;;;;4996832;28;20061;-81
2023/09/08 11:02:06;;;;;;;43.67;17.67;;;;;;;;;;4995773;28;20100;-79
2023/09/08 11:04:35;;;;;;;40.20;17.45;;;;;;;;;;4996674;28;20053;-83
2023/09/08 11:07:02;;;;;;;44.45;16.90;;;;;;;;;;4996529;28;20061;-84
2023/09/08 11:09:28;;;;;;;38.58;16.27;;;;;;;;;;4998850;28;20050;-82
2023/09/08 11:11:54;;;;;;;54.30;16.88;;;;;;;;;;4995479;28;20134;-81
2023/09/08 11:14:20;;;;;;;31.80;14.13;;;;;;;;;;4997688;28;20054;-83
2023/09/08 11:16:47;;;;;;;36.17;14.93;;;;;;;;;;5000743;28;20066;-82
2023/09/08 11:19:13;;;;;;;35.83;15.00;;;;;;;;;;4996817;28;20046;-81
2023/09/08 11:21:39;;;;;;;35.22;14.15;;;;;;;;;;4997395;28;20057;-80
2023/09/08 11:24:06;;;;;;;33.45;15.65;;;;;;;;;;4996698;28;20128;-81
2023/09/08 11:26:35;;;;;;;32.15;15.07;;;;;;;;;;4995190;28;20042;-80
2023/09/08 11:29:01;;;;;;;36.03;14.88;;;;;;;;;;4995944;28;20431;-82
2023/09/08 11:31:27;;;;;;;35.92;13.68;;;;;;;;;;4995887;28;20081;-82
2023/09/08 11:33:55;;;;;;;26.80;14.60;;;26.90;99.90;;;;;;4996465;28;20395;-80
2023/09/08 11:36:21;;;;;;;34.75;15.60;;;27.10;99.90;;;;;;4995898;28;20058;-81
2023/09/08 11:38:46;;;;;;;30.20;14.47;;;27.10;99.90;;;;;;4996120;28;20043;-82
2023/09/08 11:41:13;;;;;;;32.45;14.80;;;27.10;99.90;;;;;;4994909;28;20341;-80
2023/09/08 11:43:39;;;;;;;31.05;14.65;;;27.10;99.90;;;;;;4996156;28;20046;-81
2023/09/08 11:46:06;;;;;;;34.55;15.23;;;27.20;99.90;;;;;;4995050;28;20085;-79
2023/09/08 11:48:32;;;;;;;33.40;14.43;;;27.20;99.90;;;;;;4994675;28;20086;-81
2023/09/08 11:50:58;;;;;;;29.15;13.10;;;27.30;99.90;;;;;;4994810;28;20054;-81
2023/09/08 11:53:24;;;;;;;;;;;27.30;99.90;;;;;;4996169;28;20081;-83
2023/09/08 11:55:50;;;;;;;;;;;27.30;99.90;;;;;;4996047;28;19973;-80
2023/09/08 11:58:18;;;;;;;30.77;12.88;;;27.40;99.90;;;;;;4995660;28;20293;-79
2023/09/08 12:00:45;;;;;;;30.05;13.55;;;27.40;99.90;;;;;;4996504;28;20057;-79
2023/09/08 12:03:16;;;;;;;29.73;13.38;;;27.50;99.90;;;;;;4994963;28;20042;-80
2023/09/08 12:05:51;;;;;;;27.40;13.40;;;27.50;99.90;;;;;;4996485;28;20049;-82
2023/09/08 12:08:16;;;;;;;32.55;13.68;;;27.60;99.90;;;;;;4994583;28;20132;-80
2023/09/08 12:10:43;;;;;;;31.10;12.48;;;27.60;99.90;;;;;;4994893;28;20086;-82
2023/09/08 12:13:09;;;;;;;42.83;12.32;;;27.70;99.90;;;;;;4996214;28;20414;-81
2023/09/08 12:15:37;;;;;;;27.52;12.05;;;27.70;99.90;;;;;;4996404;28;20475;-82
2023/09/08 12:18:07;;;;;;;26.75;12.38;;;27.80;99.90;;;;;;4980315;28;20065;-84
2023/09/08 12:20:34;;;;;;;23.20;11.95;;;27.80;99.90;;;;;;4979603;28;20058;-80
2023/09/08 12:23:05;;;;;;;25.67;11.52;;;27.90;99.90;;;;;;4995025;28;20054;-80
2023/09/08 12:25:31;;;;;;;26.67;12.02;;;27.90;99.90;;;;;;4995426;28;20389;-79
2023/09/08 12:27:57;;;;;;;25.15;12.13;;;28.00;99.90;;;;;;4993696;28;20049;-78
2023/09/08 12:30:32;;;;;;;31.15;12.45;;;28.00;99.90;;;;;;4977932;28;20547;-80
2023/09/08 12:32:59;;;;;;;31.83;13.20;;;28.00;99.90;;;;;;4979275;28;20064;-82
2023/09/08 12:35:26;;;;;;;28.50;12.20;;;28.00;99.90;;;;;;4994842;28;20050;-82
2023/09/08 12:38:03;;;;;;;25.85;11.90;;;28.00;99.90;;;;;;4977401;28;20054;-77
2023/09/08 12:40:33;;;;;;;23.33;11.70;;;28.10;99.90;;;;;;4994300;28;20057;-83
2023/09/08 12:42:58;;;;;;;21.85;11.70;;;28.20;99.90;;;;;;4978135;28;20093;-83
2023/09/08 12:45:26;;;;;;;29.35;10.93;;;28.10;99.90;;;;;;4993622;28;20088;-79
2023/09/08 12:47:52;;;;;;;23.05;12.20;;;28.10;99.90;;;;;;4993605;28;20081;-76
2023/09/08 12:50:18;;;;;;;23.48;11.65;;;28.20;99.90;;;;;;4993036;28;20093;-79
2023/09/08 12:52:44;;;;;;;21.60;11.40;;;28.20;99.90;;;;;;4994423;28;20521;-79
2023/09/08 12:55:09;;;;;;;21.40;11.15;;;28.20;99.90;;;;;;4994542;28;20111;-81
2023/09/08 12:57:36;;;;;;;23.80;11.18;;;28.30;99.90;;;;;;4993500;28;20145;-80
2023/09/08 13:00:02;;;;;;;;;;;28.20;99.90;;;;;;4994831;28;20061;-79
2023/09/08 13:02:28;;;;;;;24.08;11.43;;;28.30;99.90;;;;;;4994416;28;19976;-78
2023/09/08 13:04:55;;;;;;;25.85;11.75;;;28.20;99.80;;;;;;4994376;28;20050;-79
2023/09/08 13:07:20;;;;;;;23.38;12.15;;;28.20;99.80;;;;;;4977351;28;20455;-80
2023/09/08 13:09:48;;;;;;;30.73;10.90;;;28.20;99.90;;;;;;4978037;28;20100;-79
2023/09/08 13:12:14;;;;;;;20.73;10.48;;;28.30;99.90;;;;;;4976661;28;20106;-79
2023/09/08 13:14:41;;;;;;;22.17;11.25;;;28.30;99.90;;;;;;4995147;28;20137;-79
2023/09/08 13:17:08;;;;;;;25.45;11.13;;;28.40;99.40;;;;;;4994270;28;20085;-77
2023/09/08 13:19:33;;;;;;;20.98;10.50;;;28.40;98.90;;;;;;4993731;28;20360;-76
2023/09/08 13:21:59;;;;;;;25.00;10.45;;;28.40;98.90;;;;;;4992992;28;20050;-78
2023/09/08 13:24:25;;;;;;;22.17;11.02;;;28.40;99.60;;;;;;4994026;28;20053;-78
2023/09/08 13:26:50;;;;;;;21.05;10.85;;;28.40;99.90;;;;;;4993992;28;20042;-77
2023/09/08 13:29:18;;;;;;;22.27;10.43;;;28.50;99.00;;;;;;4976924;28;20046;-76
2023/09/08 13:31:44;;;;;;;22.00;10.60;;;28.50;99.20;;;;;;4994142;28;20082;-76
2023/09/08 13:34:09;;;;;;;19.02;10.73;;;28.50;98.50;;;;;;4994598;28;20498;-79
2023/09/08 13:36:35;;;;;;;24.35;9.75;;;28.60;98.60;;;;;;4992833;28;20386;-76
2023/09/08 13:39:01;;;;;;;19.52;10.90;;;28.50;98.70;;;;;;4994074;28;20047;-78
2023/09/08 13:41:45;;;;;;;27.95;11.02;;;28.60;98.80;;;;;;4992816;28;20517;-77
2023/09/08 13:44:11;;;;;;;24.17;11.00;;;28.60;98.90;;;;;;4993877;28;20157;-78
2023/09/08 13:46:37;;;;;;;18.15;10.13;;;28.60;99.30;;;;;;4994425;28;20046;-80
2023/09/08 13:49:02;;;;;;;21.88;9.93;;;28.60;98.80;;;;;;4992708;28;20082;-78
2023/09/08 13:51:28;;;;;;;24.55;10.23;;;28.60;98.80;;;;;;4994284;28;20097;-79
2023/09/08 13:53:54;;;;;;;18.58;10.35;;;28.60;99.00;;;;;;4994389;28;20093;-80
2023/09/08 13:56:20;;;;;;;21.35;9.90;;;28.60;99.20;;;;;;4993863;28;20050;-78